Time;durP1;ratioP1;P1;durP2;ratioP2;P2;SDS_P1;SDS_P2;PMS_P1;PMS_P2;Temp;Humidity;BMP_temperature;BMP_pressure;BME280_temperature;BME280_humidity;BME280_pressure;Samples;Min_cycle;Max_cycle;Signal;HPM_P1;HPM_P2
2022/08/05 00:00:15;;;;;;;;;4.25;3.50;;;;;20.72;67.34;100571.97;4993784;28;45497;-76
2022/08/05 00:02:41;;;;;;;;;3.00;3.00;;;;;20.49;67.82;100596.69;4993679;28;45893;-77
2022/08/05 00:05:07;;;;;;;;;3.50;2.75;;;;;20.40;66.92;100658.00;4995057;28;45286;-75
2022/08/05 00:07:32;;;;;;;;;3.00;3.00;;;;;20.40;68.74;100714.34;4993914;28;45381;-76
2022/08/05 00:09:58;;;;;;;;;4.25;4.25;;;;;20.42;68.63;100793.00;4994966;28;45351;-76
2022/08/05 00:12:23;;;;;;;;;8.00;3.00;;;;;20.47;69.90;100802.59;4993337;28;46148;-75
2022/08/05 00:14:49;;;;;;;;;3.50;3.50;;;;;20.53;69.38;100829.09;4975583;28;45370;-77
2022/08/05 00:17:14;;;;;;;;;3.75;3.75;;;;;20.55;69.38;100837.91;4975348;28;45434;-76
2022/08/05 00:19:40;;;;;;;;;2.50;2.50;;;;;20.54;69.67;100825.44;4973290;28;45376;-77
2022/08/05 00:22:05;;;;;;;;;5.50;4.25;;;;;20.62;69.58;100779.34;4974642;28;46096;-77
2022/08/05 00:24:30;;;;;;;;;3.50;3.00;;;;;20.59;69.21;100775.91;4991349;28;45482;-77
2022/08/05 00:26:56;;;;;;;;;2.00;2.00;;;;;20.62;68.49;100780.22;4994621;28;45510;-76
2022/08/05 00:29:21;;;;;;;;;6.00;4.25;;;;;20.63;69.08;100854.44;4994590;28;45570;-76
2022/08/05 00:31:47;;;;;;;;;3.00;3.00;;;;;20.59;68.47;100769.66;4983540;28;46161;-75
2022/08/05 00:34:13;;;;;;;;;5.75;4.25;;;;;20.56;69.18;100695.53;4988338;28;45795;-75
2022/08/05 00:36:38;;;;;;;;;2.00;2.00;;;;;20.49;68.88;100757.72;4975285;28;45377;-75
2022/08/05 00:39:04;;;;;;;;;4.25;3.50;;;;;20.46;69.91;100827.72;4974292;28;45446;-75
2022/08/05 00:41:32;;;;;;;;;4.00;4.00;;;;;20.48;68.60;100887.53;4989876;28;46105;-74
2022/08/05 00:43:58;;;;;;;;;3.25;3.00;;;;;20.46;68.64;100886.75;4990910;28;45428;-74
2022/08/05 00:46:24;;;;;;;;;4.00;4.00;;;;;20.45;68.07;100818.75;4994098;28;45471;-76
2022/08/05 00:48:50;;;;;;;;;3.00;2.00;;;;;20.54;67.49;100779.78;4994096;28;45822;-76
2022/08/05 00:51:16;;;;;;;;;3.25;3.25;;;;;20.51;67.81;100812.19;4984396;28;46277;-74
2022/08/05 00:53:41;;;;;;;;;3.00;3.00;;;;;20.45;68.11;100770.44;4973962;28;45525;-76
2022/08/05 00:56:07;;;;;;;;;5.00;3.75;;;;;20.47;67.78;100739.03;4974793;28;45783;-75
2022/08/05 00:58:32;;;;;;;;;3.75;2.50;;;;;20.44;67.32;100749.06;4988649;28;45480;-74
2022/08/05 01:00:57;;;;;;;;;5.25;3.75;;;;;20.46;67.17;100865.28;4992035;28;48480;-74
2022/08/05 01:03:24;;;;;;;;;3.00;3.00;;;;;20.41;66.39;100858.34;4993853;28;45432;-74
2022/08/05 01:05:50;;;;;;;;;5.00;3.00;;;;;20.38;67.12;100810.22;4998198;28;45367;-73
2022/08/05 01:08:16;;;;;;;;;2.00;1.00;;;;;20.36;66.86;100734.31;4997644;28;45352;-75
2022/08/05 01:11:18;;;;;;;;;0.00;0.00;;;;;20.18;67.57;100697.81;4989917;28;49301;-74
2022/08/05 01:14:03;;;;;;;;;2.00;2.00;;;;;20.06;68.49;100829.00;4994460;28;45429;-74
2022/08/05 01:17:10;;;;;;;;;2.00;1.25;;;;;20.08;68.26;100806.59;4997202;28;45347;-74
2022/08/05 01:19:54;;;;;;;;;3.50;3.50;;;;;20.15;68.29;100838.38;4996802;28;45390;-75
2022/08/05 01:22:29;;;;;;;;;3.75;2.00;;;;;20.13;68.69;100823.28;4997074;28;45832;-74
2022/08/05 01:25:28;;;;;;;;;2.50;2.50;;;;;20.11;68.10;100860.09;4995959;28;45514;-74
2022/08/05 01:28:12;;;;;;;;;3.75;3.00;;;;;20.09;68.25;100802.94;4995189;28;45381;-74
2022/08/05 01:30:47;;;;;;;;;4.00;4.00;;;;;20.07;67.59;100757.44;4995391;28;45533;-74
2022/08/05 01:33:16;;;;;;;;;3.00;3.00;;;;;20.00;67.75;100724.72;4996858;28;46257;-76
2022/08/05 01:35:45;;;;;;;;;4.00;4.00;;;;;19.99;67.65;100728.34;4997045;28;45363;-74
2022/08/05 01:38:12;;;;;;;;;2.75;2.00;;;;;19.98;67.54;100720.41;4991593;28;45427;-73
2022/08/05 01:40:39;;;;;;;;;3.00;2.00;;;;;19.96;67.80;100688.31;4977727;28;45492;-74
2022/08/05 01:43:05;;;;;;;;;3.00;2.00;;;;;19.83;67.93;100688.16;4977818;28;46098;-75
2022/08/05 01:45:32;;;;;;;;;1.00;1.00;;;;;19.81;68.15;100745.50;4977215;28;45466;-75
2022/08/05 01:48:00;;;;;;;;;2.50;2.50;;;;;19.83;68.29;100724.81;4977859;28;45452;-75
2022/08/05 01:50:29;;;;;;;;;5.50;4.00;;;;;19.79;68.42;100736.69;4977181;28;45328;-75
2022/08/05 01:52:59;;;;;;;;;2.50;2.50;;;;;19.82;68.40;100791.00;4980665;28;46417;-75
2022/08/05 01:55:27;;;;;;;;;5.25;3.25;;;;;19.79;69.90;100760.81;5011524;28;45609;-76
2022/08/05 01:57:56;;;;;;;;;2.00;2.00;;;;;19.65;69.15;100743.63;4996921;28;45405;-75
2022/08/05 02:00:21;;;;;;;;;3.00;3.00;;;;;19.72;69.94;100762.91;4995648;28;45517;-75
2022/08/05 02:02:52;;;;;;;;;4.25;3.00;;;;;19.69;70.97;100758.63;4996563;28;46455;-76
2022/08/05 02:05:20;;;;;;;;;3.00;3.00;;;;;19.63;70.38;100758.97;4996761;28;45533;-74
2022/08/05 02:07:45;;;;;;;;;3.00;3.00;;;;;19.52;70.70;100754.19;4991366;28;45576;-75
2022/08/05 02:10:11;;;;;;;;;2.50;2.50;;;;;19.57;71.10;100753.94;4988119;28;45601;-75
2022/08/05 02:12:50;;;;;;;;;4.00;3.00;;;;;19.57;70.28;100786.09;4996392;28;45444;-75
2022/08/05 02:15:26;;;;;;;;;3.00;3.00;;;;;19.55;70.75;100779.94;4995316;28;45378;-75
2022/08/05 02:18:05;;;;;;;;;2.75;1.75;;;;;19.53;68.73;100768.44;4995408;28;45402;-74
2022/08/05 02:20:38;;;;;;;;;3.75;3.75;;;;;19.48;70.06;100775.84;4995394;28;45443;-75
2022/08/05 02:23:09;;;;;;;;;2.00;2.00;;;;;19.42;70.26;100776.19;4996114;28;45379;-74
2022/08/05 02:25:38;;;;;;;;;3.00;2.25;;;;;19.43;70.47;100780.59;4994241;28;45591;-75
2022/08/05 02:28:06;;;;;;;;;3.50;3.00;;;;;19.45;70.96;100797.44;4976823;28;45384;-75
2022/08/05 02:30:43;;;;;;;;;3.00;3.00;;;;;19.48;71.51;100800.84;4976031;28;45447;-74
2022/08/05 02:33:13;;;;;;;;;2.50;1.00;;;;;19.41;71.11;100796.75;4976376;28;45433;-74
2022/08/05 02:35:43;;;;;;;;;3.00;3.00;;;;;19.40;71.26;100812.94;4977202;28;45374;-74
2022/08/05 02:38:11;;;;;;;;;3.00;3.00;;;;;19.43;71.43;100800.22;4996486;28;45339;-74
2022/08/05 02:40:41;;;;;;;;;3.00;3.00;;;;;19.51;71.81;100794.44;4995809;28;45554;-75
2022/08/05 02:43:09;;;;;;;;;5.00;5.00;;;;;19.48;72.19;100818.72;4995710;28;45436;-73
2022/08/05 02:45:36;;;;;;;;;5.25;4.00;;;;;19.50;72.04;100736.44;4995252;28;45487;-73
2022/08/05 02:48:03;;;;;;;;;2.00;2.00;;;;;19.37;70.93;100703.22;4977583;28;45452;-74
2022/08/05 02:50:29;;;;;;;;;3.50;3.50;;;;;19.31;71.66;100734.78;4976281;28;45289;-74
2022/08/05 02:52:56;;;;;;;;;3.00;3.00;;;;;19.33;71.18;100738.22;4975470;28;45362;-74
2022/08/05 02:55:22;;;;;;;;;3.50;3.50;;;;;19.31;71.52;100732.09;4981316;28;45405;-73
2022/08/05 02:57:49;;;;;;;;;3.00;3.00;;;;;19.30;71.57;100724.16;4978776;28;45514;-74
2022/08/05 03:00:16;;;;;;;;;3.00;3.00;;;;;19.27;70.71;100729.66;5009517;28;45572;-74
2022/08/05 03:02:43;;;;;;;;;3.00;3.00;;;;;19.22;70.22;100748.66;4995182;28;45489;-73
2022/08/05 03:05:11;;;;;;;;;3.00;3.00;;;;;19.25;69.98;100775.28;4995669;28;45458;-73
2022/08/05 03:07:39;;;;;;;;;3.00;3.00;;;;;19.26;70.43;100786.88;4994000;28;45359;-74
2022/08/05 03:10:06;;;;;;;;;3.25;3.25;;;;;19.23;70.31;100795.94;4976166;28;45356;-74
2022/08/05 03:12:34;;;;;;;;;2.50;2.50;;;;;19.26;70.22;100786.88;4975626;28;45400;-73
2022/08/05 03:15:00;;;;;;;;;2.25;2.25;;;;;19.27;68.98;100784.09;4982123;28;45607;-72
2022/08/05 03:17:26;;;;;;;;;2.75;2.25;;;;;19.25;70.43;100786.00;4995320;28;45429;-74
2022/08/05 03:19:52;;;;;;;;;2.00;2.00;;;;;19.23;68.99;100758.41;4995335;28;45720;-73
2022/08/05 03:22:17;;;;;;;;;2.00;2.00;;;;;19.23;69.22;100761.09;4995561;28;45620;-73
2022/08/05 03:24:44;;;;;;;;;4.75;2.50;;;;;19.27;68.55;100768.03;4993944;28;45496;-74
2022/08/05 03:27:11;;;;;;;;;2.00;2.00;;;;;19.26;68.70;100782.38;4993174;28;45456;-72
2022/08/05 03:29:37;;;;;;;;;2.00;2.00;;;;;19.26;69.22;100782.38;4995275;28;45338;-75
2022/08/05 03:32:04;;;;;;;;;3.25;2.00;;;;;19.22;69.39;100779.94;4988694;28;46133;-74
2022/08/05 03:34:31;;;;;;;;;3.50;2.00;;;;;19.19;69.00;100775.59;4985412;28;45402;-73
2022/08/05 03:36:56;;;;;;;;;1.50;1.50;;;;;19.18;69.05;100777.41;4992262;28;45403;-74
2022/08/05 03:39:22;;;;;;;;;3.25;3.25;;;;;19.17;70.02;100783.72;4975515;28;45407;-74
2022/08/05 03:41:47;;;;;;;;;5.00;4.50;;;;;19.20;69.51;100797.91;4974567;28;46053;-73
2022/08/05 03:44:12;;;;;;;;;3.00;3.00;;;;;19.20;69.21;100790.72;4975242;28;45502;-73
2022/08/05 03:46:38;;;;;;;;;3.00;3.00;;;;;19.21;68.59;100799.63;4994498;28;45553;-73
2022/08/05 03:49:03;;;;;;;;;2.00;2.00;;;;;19.20;68.26;100788.06;4994500;28;45490;-74
2022/08/05 03:51:49;;;;;;;;;2.00;2.00;;;;;19.22;69.52;100788.84;4993038;28;47168;-74
2022/08/05 03:54:29;;;;;;;;;2.00;2.00;;;;;19.22;69.84;100794.22;4974426;28;45517;-73
2022/08/05 03:56:56;;;;;;;;;3.00;3.00;;;;;19.23;69.53;100801.28;4987366;28;45473;-74
2022/08/05 03:59:32;;;;;;;;;3.00;3.00;;;;;19.23;69.90;100793.25;5009563;28;45409;-74
2022/08/05 04:02:00;;;;;;;;;6.00;5.25;;;;;19.26;70.02;100781.50;4995060;28;46212;-73
2022/08/05 04:04:26;;;;;;;;;3.50;3.25;;;;;19.21;69.94;100770.16;4994785;28;45296;-73
2022/08/05 04:06:52;;;;;;;;;6.50;3.00;;;;;19.19;70.19;100775.59;4977660;28;45402;-74
2022/08/05 04:09:18;;;;;;;;;6.00;5.00;;;;;19.13;69.40;100767.88;4993951;28;45337;-74
2022/08/05 04:11:44;;;;;;;;;2.25;2.25;;;;;19.16;69.66;100773.06;4993373;28;46019;-73
2022/08/05 04:14:10;;;;;;;;;5.50;3.75;;;;;19.15;69.27;100780.25;4977428;28;45350;-73
2022/08/05 04:16:37;;;;;;;;;7.00;4.25;;;;;19.20;68.39;100784.50;4977179;28;45447;-73
2022/08/05 04:19:03;;;;;;;;;5.00;2.50;;;;;19.19;68.51;100786.31;4974423;28;45472;-73
2022/08/05 04:21:29;;;;;;;;;3.75;3.50;;;;;19.18;68.18;100795.31;4974230;28;45427;-74
2022/08/05 04:23:57;;;;;;;;;4.00;4.00;;;;;19.14;69.00;100789.22;4973819;28;45534;-74
2022/08/05 04:26:23;;;;;;;;;3.00;3.00;;;;;19.13;68.53;100792.00;4973995;28;45414;-74
2022/08/05 04:28:48;;;;;;;;;5.00;4.00;;;;;19.09;69.37;100785.09;4988009;28;45452;-74
2022/08/05 04:31:13;;;;;;;;;3.00;3.00;;;;;19.06;68.52;100787.91;4976935;28;46141;-74
2022/08/05 04:33:39;;;;;;;;;4.25;4.00;;;;;19.00;69.41;100773.03;4974711;28;45404;-75
2022/08/05 04:36:04;;;;;;;;;3.50;3.50;;;;;19.02;69.76;100778.31;4985549;28;45354;-74
2022/08/05 04:38:30;;;;;;;;;5.00;4.00;;;;;19.04;68.53;100781.75;4994767;28;45466;-73
2022/08/05 04:40:55;;;;;;;;;3.75;3.75;;;;;19.06;68.92;100777.22;4997367;28;45522;-73
2022/08/05 04:43:20;;;;;;;;;3.00;3.00;;;;;19.01;69.06;100772.09;5012819;28;45386;-73
2022/08/05 04:45:46;;;;;;;;;4.25;3.75;;;;;18.95;69.23;100767.91;4996708;28;45510;-74
2022/08/05 04:48:13;;;;;;;;;5.00;5.00;;;;;18.99;69.30;100782.00;4997331;28;45455;-73
2022/08/05 04:50:48;;;;;;;;;4.00;4.00;;;;;18.97;68.67;100782.09;4997358;28;45481;-75
2022/08/05 04:53:16;;;;;;;;;4.00;4.00;;;;;19.03;68.26;100801.47;4997320;28;45516;-74
2022/08/05 04:55:42;;;;;;;;;5.00;5.00;;;;;19.02;68.47;100805.09;4990025;28;45557;-73
2022/08/05 04:58:10;;;;;;;;;3.75;3.75;;;;;19.02;68.14;100800.59;4994380;28;45509;-74
2022/08/05 05:00:37;;;;;;;;;4.00;4.00;;;;;19.04;68.59;100805.88;4997309;28;45694;-74
2022/08/05 05:03:04;;;;;;;;;5.75;3.50;;;;;19.06;68.53;100807.53;4997500;28;45403;-73
2022/08/05 05:05:30;;;;;;;;;4.25;2.00;;;;;19.05;67.87;100803.09;4995731;28;45351;-74
2022/08/05 05:08:00;;;;;;;;;4.50;4.50;;;;;19.05;67.82;100799.56;4983099;28;45595;-74
2022/08/05 05:10:25;;;;;;;;;2.50;2.50;;;;;19.13;67.55;100813.41;4981291;28;46223;-74
2022/08/05 05:12:50;;;;;;;;;2.50;2.50;;;;;19.35;67.83;100810.50;4996376;28;48335;-74
2022/08/05 05:15:16;;;;;;;;;2.00;2.00;;;;;19.46;66.83;100813.47;4987761;28;45391;-74
2022/08/05 05:17:45;;;;;;;;;3.00;3.00;;;;;19.59;66.39;100816.34;4977809;28;45395;-73
2022/08/05 05:20:12;;;;;;;;;3.50;2.75;;;;;19.75;66.45;100823.56;4977936;28;46278;-74
2022/08/05 05:22:37;;;;;;;;;4.25;4.00;;;;;19.79;66.66;100823.34;4975939;28;45410;-74
2022/08/05 05:25:03;;;;;;;;;2.00;2.00;;;;;19.81;65.32;100821.44;4976315;28;45526;-74
2022/08/05 05:27:31;;;;;;;;;5.00;3.00;;;;;19.89;64.31;100834.44;4981197;28;45550;-75
2022/08/05 05:29:56;;;;;;;;;2.50;2.50;;;;;19.86;64.41;100826.56;4997285;28;46682;-73
2022/08/05 05:32:22;;;;;;;;;4.00;4.00;;;;;19.92;64.48;100828.91;4997268;28;45374;-74
2022/08/05 05:34:47;;;;;;;;;2.00;2.00;;;;;19.98;63.41;100839.31;4988470;28;45481;-75
2022/08/05 05:37:13;;;;;;;;;2.00;2.00;;;;;19.96;63.11;100851.91;4977774;28;45478;-74
2022/08/05 05:39:39;;;;;;;;;3.75;3.00;;;;;19.97;64.14;100850.97;4976557;28;45439;-74
2022/08/05 05:42:04;;;;;;;;;2.00;2.00;;;;;19.93;63.52;100852.09;4992416;28;45371;-73
2022/08/05 05:44:30;;;;;;;;;2.25;2.25;;;;;19.99;63.21;100858.94;4986603;28;45460;-72
2022/08/05 05:46:55;;;;;;;;;2.75;2.75;;;;;19.99;63.60;100857.09;4975888;28;45351;-74
2022/08/05 05:49:21;;;;;;;;;3.25;3.25;;;;;20.05;63.12;100859.44;4976989;28;45336;-74
2022/08/05 05:51:47;;;;;;;;;4.00;4.00;;;;;20.10;62.73;100863.69;4976750;28;45398;-74
2022/08/05 05:54:12;;;;;;;;;3.00;1.00;;;;;20.17;63.29;100859.75;4977022;28;45390;-74
2022/08/05 05:56:38;;;;;;;;;4.75;3.50;;;;;20.26;62.76;100861.91;4989909;28;45496;-75
2022/08/05 05:59:05;;;;;;;;;3.00;3.00;;;;;20.84;61.45;100854.19;4994998;28;45929;-74
2022/08/05 06:01:31;;;;;;;;;4.00;4.00;;;;;21.03;60.64;100873.63;4994503;28;45447;-74
2022/08/05 06:03:57;;;;;;;;;4.00;4.00;;;;;21.15;60.45;100873.84;4980829;28;45374;-72
2022/08/05 06:06:22;;;;;;;;;5.50;4.00;;;;;21.67;58.66;100876.09;4988313;28;45442;-74
2022/08/05 06:08:47;;;;;;;;;4.00;3.00;;;;;21.92;57.22;100870.03;4979850;28;46278;-76
2022/08/05 06:11:13;;;;;;;;;2.00;2.00;;;;;21.88;56.97;100864.94;4984432;28;45419;-73
2022/08/05 06:13:38;;;;;;;;;4.50;4.00;;;;;21.81;57.34;100889.53;4976959;28;45465;-74
2022/08/05 06:16:03;;;;;;;;;3.00;2.00;;;;;21.70;57.72;100881.28;4994454;28;45360;-75
2022/08/05 06:18:29;;;;;;;;;5.75;4.00;;;;;21.62;58.26;100884.44;4988863;28;46067;-73
2022/08/05 06:20:54;;;;;;;;;2.00;2.00;;;;;21.68;57.53;100883.19;4985889;28;45410;-74
2022/08/05 06:23:19;;;;;;;;;2.00;2.00;;;;;22.35;57.35;100890.72;4987839;28;45555;-73
2022/08/05 06:25:45;;;;;;;;;6.00;3.50;;;;;23.32;54.63;100897.78;4990878;28;45537;-74
2022/08/05 06:28:10;;;;;;;;;3.75;3.75;;;;;24.26;52.65;100895.72;4994168;28;46188;-74
2022/08/05 06:30:35;;;;;;;;;5.25;3.00;;;;;25.17;49.85;100892.56;4996111;28;45494;-76
2022/08/05 06:33:01;;;;;;;;;19.25;17.00;;;;;26.07;47.92;100891.06;4988045;28;45470;-75
2022/08/05 06:35:26;;;;;;;;;12.75;10.75;;;;;26.76;45.67;100882.69;4979359;28;45530;-75
2022/08/05 06:37:52;;;;;;;;;6.75;5.75;;;;;27.45;44.10;100881.41;4977850;28;45569;-75
2022/08/05 06:40:17;;;;;;;;;8.25;8.25;;;;;28.15;43.52;100869.91;4980305;28;45588;-76
2022/08/05 06:42:42;;;;;;;;;5.75;5.00;;;;;29.02;41.68;100879.25;4983872;28;45615;-76
2022/08/05 06:45:08;;;;;;;;;5.00;5.00;;;;;29.72;39.88;100873.56;4980188;28;45568;-76
2022/08/05 06:47:33;;;;;;;;;4.25;4.25;;;;;30.38;38.00;100868.97;4977650;28;45582;-76
2022/08/05 06:49:58;;;;;;;;;3.00;3.00;;;;;31.14;37.26;100873.16;4982557;28;45506;-75
2022/08/05 06:52:24;;;;;;;;;3.00;3.00;;;;;31.56;35.83;100877.97;4975861;28;45534;-75
2022/08/05 06:54:49;;;;;;;;;3.00;3.00;;;;;32.11;35.05;100881.34;4973852;28;45422;-76
2022/08/05 06:57:17;;;;;;;;;3.25;3.25;;;;;32.54;34.65;100872.09;4974950;28;46252;-75
2022/08/05 06:59:42;;;;;;;;;3.25;3.25;;;;;32.86;33.57;100870.47;4979677;28;45379;-77
2022/08/05 07:02:08;;;;;;;;;3.50;3.00;;;;;33.20;33.09;100868.63;4978419;28;45451;-75
2022/08/05 07:04:33;;;;;;;;;2.00;2.00;;;;;33.50;32.43;100871.69;4985808;28;45432;-76
2022/08/05 07:06:59;;;;;;;;;2.75;2.75;;;;;34.01;32.53;100864.00;4980696;28;45426;-75
2022/08/05 07:09:24;;;;;;;;;3.75;2.50;;;;;34.30;30.63;100865.25;4992420;28;45670;-75
2022/08/05 07:11:50;;;;;;;;;3.00;3.00;;;;;34.64;31.14;100875.88;4990092;28;45362;-76
2022/08/05 07:17:00;;;;;;;;;1.25;1.00;;;;;35.34;30.45;100881.38;4979473;28;45404;-74
2022/08/05 07:19:27;;;;;;;;;3.50;3.50;;;;;35.70;28.96;100876.03;4988163;28;45469;-80
2022/08/05 07:21:53;;;;;;;;;2.75;2.75;;;;;35.89;29.42;100893.84;4979526;28;45328;-75
2022/08/05 07:24:19;;;;;;;;;4.00;4.00;;;;;36.42;28.42;100890.13;4983423;28;45361;-76
2022/08/05 07:26:45;;;;;;;;;2.25;2.25;;;;;36.71;27.24;100899.34;4985843;28;46288;-75
2022/08/05 07:29:11;;;;;;;;;2.75;2.75;;;;;36.99;26.97;100892.03;4985764;28;45709;-74
2022/08/05 07:31:36;;;;;;;;;3.50;2.75;;;;;37.32;27.62;100886.00;4989602;28;45465;-74
2022/08/05 07:34:02;;;;;;;;;6.25;5.25;;;;;37.49;25.60;100902.22;4990098;28;45763;-74
2022/08/05 07:36:28;;;;;;;;;2.00;2.00;;;;;37.74;26.69;100899.88;4986134;28;46298;-75
2022/08/05 07:38:54;;;;;;;;;4.00;3.00;;;;;37.92;26.18;100906.78;4985600;28;46221;-75
2022/08/05 07:41:22;;;;;;;;;4.00;3.00;;;;;37.84;25.56;100905.06;4986855;28;45463;-74
2022/08/05 07:43:47;;;;;;;;;1.00;1.00;;;;;37.75;26.85;100920.03;4979658;28;45522;-74
2022/08/05 07:46:13;;;;;;;;;1.50;0.00;;;;;38.11;26.31;100917.06;4987761;28;46968;-75
2022/08/05 07:48:39;;;;;;;;;0.75;0.75;;;;;38.47;25.65;100921.50;4983233;28;45494;-74
2022/08/05 07:51:04;;;;;;;;;4.00;3.00;;;;;38.82;25.00;100912.28;4988461;28;45669;-76
2022/08/05 07:53:30;;;;;;;;;3.00;3.00;;;;;39.01;25.04;100910.59;4993238;28;45398;-75
2022/08/05 07:55:55;;;;;;;;;3.00;3.00;;;;;39.30;24.24;100925.09;4990441;28;46471;-74
2022/08/05 07:58:21;;;;;;;;;4.00;2.25;;;;;39.30;25.44;100920.44;4990667;28;45438;-75
2022/08/05 08:00:46;;;;;;;;;4.00;4.00;;;;;39.24;23.98;100926.81;4984195;28;45521;-74
2022/08/05 08:03:12;;;;;;;;;4.25;3.00;;;;;39.25;24.51;100928.50;4979786;28;45397;-73
2022/08/05 08:05:41;;;;;;;;;4.00;4.00;;;;;39.36;24.13;100929.75;4974103;28;46093;-74
2022/08/05 08:08:06;;;;;;;;;4.75;4.75;;;;;39.50;24.17;100934.22;4975290;28;45443;-74
2022/08/05 08:10:32;;;;;;;;;3.75;2.50;;;;;39.67;23.69;100925.53;4974384;28;45410;-73
2022/08/05 08:12:57;;;;;;;;;2.75;2.00;;;;;39.70;23.59;100937.00;4992083;28;45473;-74
2022/08/05 08:15:22;;;;;;;;;3.00;3.00;;;;;39.68;23.65;100939.13;4980534;28;45598;-73
2022/08/05 08:17:48;;;;;;;;;1.50;1.50;;;;;39.75;23.95;100950.19;4984792;28;45442;-73
2022/08/05 08:20:13;;;;;;;;;4.00;2.00;;;;;39.78;24.33;100950.63;4980940;28;45418;-74
2022/08/05 08:22:38;;;;;;;;;2.00;2.00;;;;;39.78;23.82;100946.97;4989420;28;45450;-74
2022/08/05 08:25:05;;;;;;;;;5.25;3.25;;;;;39.70;24.53;100948.06;4988401;28;45810;-74
2022/08/05 08:27:31;;;;;;;;;2.50;2.50;;;;;39.59;22.90;100959.78;4974386;28;45482;-74
2022/08/05 08:29:57;;;;;;;;;2.25;2.25;;;;;39.44;23.50;100957.19;4982005;28;45429;-74
2022/08/05 08:32:22;;;;;;;;;2.25;2.25;;;;;39.35;25.19;100962.09;4987145;28;45501;-73
2022/08/05 08:34:48;;;;;;;;;3.00;3.00;;;;;39.53;23.94;100964.22;4992214;28;45522;-74
2022/08/05 08:37:13;;;;;;;;;3.50;3.50;;;;;39.58;23.76;100966.38;4992278;28;45480;-74
2022/08/05 08:39:39;;;;;;;;;1.25;1.25;;;;;39.57;24.05;100970.19;4989649;28;45766;-73
2022/08/05 08:42:06;;;;;;;;;4.50;2.75;;;;;39.65;24.54;100974.63;4989978;28;45455;-74
2022/08/05 08:44:32;;;;;;;;;6.75;4.75;;;;;39.56;23.47;100982.31;4982861;28;45449;-74
2022/08/05 08:46:58;;;;;;;;;3.75;3.75;;;;;39.50;23.02;100985.91;4974728;28;45562;-73
2022/08/05 08:49:24;;;;;;;;;5.00;3.00;;;;;39.53;23.51;100979.97;4974376;28;45512;-73
2022/08/05 08:52:11;;;;;;;;;6.75;4.75;;;;;39.46;22.95;100979.94;4974387;28;45585;-73
2022/08/05 08:54:37;;;;;;;;;3.00;3.00;;;;;39.37;23.19;100984.84;4984338;28;45534;-74
2022/08/05 08:57:05;;;;;;;;;4.00;3.00;;;;;39.45;24.55;100984.63;4987563;28;45495;-74
2022/08/05 08:59:31;;;;;;;;;3.25;3.25;;;;;39.51;22.64;100990.34;4986366;28;45628;-73
2022/08/05 09:01:57;;;;;;;;;4.00;3.50;;;;;39.67;23.38;100987.19;4985995;28;45588;-73
2022/08/05 09:04:22;;;;;;;;;3.75;2.50;;;;;39.70;23.13;100997.81;4983060;28;46377;-74
2022/08/05 09:06:48;;;;;;;;;1.50;1.50;;;;;39.62;22.72;100989.75;4986401;28;45528;-73
2022/08/05 09:09:15;;;;;;;;;2.00;2.00;;;;;39.38;22.70;100992.06;4982028;28;45466;-74
2022/08/05 09:11:40;;;;;;;;;2.75;2.75;;;;;39.37;23.46;100998.66;4981155;28;45609;-75
2022/08/05 09:14:06;;;;;;;;;3.00;3.00;;;;;39.41;23.26;100988.88;4983235;28;45629;-74
2022/08/05 09:16:32;;;;;;;;;2.00;2.00;;;;;39.42;23.24;100990.56;4980998;28;45441;-73
2022/08/05 09:18:57;;;;;;;;;4.25;4.25;;;;;39.19;22.75;100996.50;4980810;28;45479;-73
2022/08/05 09:21:23;;;;;;;;;3.00;2.00;;;;;39.08;23.13;101003.47;4980193;28;45589;-74
2022/08/05 09:24:03;;;;;;;;;3.50;3.00;;;;;39.26;22.86;101000.13;4982222;28;46234;-74
2022/08/05 09:26:29;;;;;;;;;3.75;3.00;;;;;39.27;23.43;101009.28;4984148;28;45516;-72
2022/08/05 09:29:00;;;;;;;;;3.00;3.00;;;;;39.31;23.28;101009.69;4985412;28;45436;-73
2022/08/05 09:31:25;;;;;;;;;6.00;5.00;;;;;39.35;22.80;100999.94;4983671;28;45490;-74
2022/08/05 09:34:00;;;;;;;;;5.75;3.50;;;;;39.34;22.54;100993.53;4988003;28;45442;-73
2022/08/05 09:36:49;;;;;;;;;6.00;3.00;;;;;39.34;23.12;100995.44;4988226;28;45455;-74
2022/08/05 09:39:16;;;;;;;;;3.50;3.50;;;;;39.23;23.43;101007.97;4985797;28;45530;-75
2022/08/05 09:41:58;;;;;;;;;5.00;3.25;;;;;39.33;23.36;100997.38;4988052;28;45554;-72
2022/08/05 09:44:38;;;;;;;;;3.25;3.25;;;;;39.39;22.47;101001.22;4982794;28;47124;-73
2022/08/05 09:47:14;;;;;;;;;4.50;3.75;;;;;39.18;22.85;100999.50;4985443;28;45419;-74
2022/08/05 09:49:42;;;;;;;;;3.25;3.25;;;;;38.71;22.78;101005.69;4986798;28;45905;-73
2022/08/05 09:52:26;;;;;;;;;5.75;4.25;;;;;38.70;23.43;101016.94;4985030;28;45632;-75
2022/08/05 09:54:58;;;;;;;;;5.75;3.00;;;;;38.53;23.80;101010.91;4985688;28;46269;-74
2022/08/05 09:57:45;;;;;;;;;4.75;4.75;;;;;38.55;23.58;101012.41;4985257;28;45441;-75
2022/08/05 10:00:17;;;;;;;;;4.00;4.00;;;;;38.58;23.22;101019.41;4984400;28;45480;-74
2022/08/05 10:02:48;;;;;;;;;4.00;4.00;;;;;38.59;23.49;101023.88;4984048;28;45520;-74
2022/08/05 10:05:15;;;;;;;;;10.00;6.00;;;;;38.61;23.72;101015.38;4983908;28;45517;-73
2022/08/05 10:07:53;;;;;;;;;6.75;6.00;;;;;38.13;23.07;101018.94;4983152;28;45675;-74
2022/08/05 10:10:21;;;;;;;;;7.00;6.00;;;;;37.47;23.62;101015.41;4983538;28;45538;-75
2022/08/05 10:12:52;;;;;;;;;6.25;6.25;;;;;37.38;23.51;101026.75;4984460;28;45569;-76
2022/08/05 10:15:28;;;;;;;;;7.75;7.75;;;;;37.23;24.00;101030.44;4982195;28;45492;-74
2022/08/05 10:18:13;;;;;;;;;9.50;8.25;;;;;37.62;24.89;101022.75;4986064;28;45486;-75
2022/08/05 10:20:50;;;;;;;;;5.25;5.25;;;;;37.92;24.10;101026.19;4975851;28;45559;-74
2022/08/05 10:23:25;;;;;;;;;6.00;5.00;;;;;38.12;23.86;101014.47;4976250;28;45664;-75
2022/08/05 10:25:52;;;;;;;;;6.00;6.00;;;;;37.89;25.23;101018.34;4982841;28;45499;-76
2022/08/05 10:28:18;;;;;;;;;10.00;6.00;;;;;37.71;23.75;101020.75;4980044;28;45432;-75
2022/08/05 10:30:44;;;;;;;;;6.00;6.00;;;;;37.71;24.27;101029.00;4985710;28;45352;-75
2022/08/05 10:33:09;;;;;;;;;7.75;6.25;;;;;37.78;24.44;101028.00;4990016;28;45303;-76
2022/08/05 10:35:35;;;;;;;;;6.75;6.75;;;;;37.73;24.30;101018.63;4976026;28;45400;-74
2022/08/05 10:38:03;;;;;;;;;5.50;5.50;;;;;37.77;23.98;101026.28;4988159;28;45546;-75
2022/08/05 10:40:45;;;;;;;;;6.00;6.00;;;;;38.02;24.08;101015.69;4974020;28;45541;-75
2022/08/05 10:43:39;;;;;;;;;8.50;8.25;;;;;37.66;24.08;101024.91;4978489;28;45332;-74
2022/08/05 10:46:07;;;;;;;;;7.75;6.00;;;;;37.49;24.78;101017.94;4983845;28;46432;-76
2022/08/05 10:48:39;;;;;;;;;6.00;6.00;;;;;37.36;23.64;101018.69;4992945;28;45639;-76
2022/08/05 10:51:04;;;;;;;;;4.00;4.00;;;;;36.81;23.59;101021.88;4980690;28;45622;-76
2022/08/05 10:53:37;;;;;;;;;3.25;3.00;;;;;36.66;24.52;101029.28;4975478;28;45368;-76
2022/08/05 10:56:14;;;;;;;;;5.00;5.00;;;;;36.85;24.10;101025.09;4991773;28;45615;-74
2022/08/05 10:58:47;;;;;;;;;8.00;6.00;;;;;36.79;24.52;101023.09;4985954;28;45571;-75
2022/08/05 11:01:12;;;;;;;;;6.75;6.75;;;;;37.03;25.35;101023.81;4988927;28;45420;-76
2022/08/05 11:03:59;;;;;;;;;4.00;3.00;;;;;37.27;23.97;101037.25;4988603;28;45389;-75
2022/08/05 11:06:26;;;;;;;;;6.00;5.00;;;;;36.92;24.62;101020.53;4988698;28;46469;-75
2022/08/05 11:09:22;;;;;;;;;4.00;4.00;;;;;36.47;24.03;101044.47;4986379;28;45394;-75
2022/08/05 11:11:49;;;;;;;;;4.00;3.75;;;;;36.18;23.87;101037.88;4991541;28;45476;-75
2022/08/05 11:14:38;;;;;;;;;5.00;5.00;;;;;36.38;23.96;101042.84;4976251;28;45653;-75
2022/08/05 11:17:25;;;;;;;;;4.50;4.50;;;;;36.46;24.84;101046.38;4987169;28;45355;-75
2022/08/05 11:19:52;;;;;;;;;3.00;3.00;;;;;36.76;24.03;101049.13;4979644;28;45560;-75
2022/08/05 11:22:36;;;;;;;;;3.75;3.75;;;;;36.93;24.09;101041.50;4992675;28;45514;-75
2022/08/05 11:25:26;;;;;;;;;7.25;5.75;;;;;37.03;24.63;101040.34;4993607;28;45556;-75
2022/08/05 11:27:51;;;;;;;;;4.75;4.75;;;;;37.05;24.14;101038.25;4980436;28;46225;-75
2022/08/05 11:30:17;;;;;;;;;5.00;5.00;;;;;36.91;23.69;101046.38;4984953;28;45388;-75
2022/08/05 11:32:42;;;;;;;;;5.00;5.00;;;;;36.89;24.44;101051.19;4982792;28;45469;-74